LFBP/PUF METAR and TAF weather

Enter ICAO airport designator
Station Type Date Time Source
LFBP METAR 2018/12/12 12:00 UTC NOAA

LFBP 121200Z AUTO 23008KT 9999 FEW013 BKN023 BKN035 12/10 Q1020 NOSIG


Station Type Date Time Source
LFBP Decoded METAR 2018/12/12 12:00 UTC NOAA

Pau, France (LFBP) 43-23N 000-25W 185M
Dec 12, 2018 - 07:00 AM EST / 2018.12.12 1200 UTC
Wind: from the SW (230 degrees) at 9 MPH (8 KT):0
Visibility: greater than 7 mile(s):0
Sky conditions: mostly cloudy
Temperature: 53 F (12 C)
Dew Point: 50 F (10 C)
Relative Humidity: 87%
Pressure (altimeter): 30.12 in. Hg (1020 hPa)
ob: LFBP 121200Z AUTO 23008KT 9999 FEW013 BKN023 BKN035 12/10 Q1020 NOSIG
cycle: 12

Station Type Date Time Source
LFBP TAF 2018/12/12 12:21 UTC NOAA

TAF LFBP 121100Z 1212/1312 26008KT 9999 SCT011 BKN045
BECMG 1214/1216 CAVOK
BECMG 1217/1219 11005KT
BECMG 1305/1307 BKN045
TEMPO 1306/1309 4000 -RA BKN035
TEMPO 1309/1312 3000 RA BKN015


Example: see airport list